Time;durP1;ratioP1;P1;durP2;ratioP2;P2;SDS_P1;SDS_P2;PMS_P1;PMS_P2;Temp;Humidity;BMP_temperature;BMP_pressure;BME280_temperature;BME280_humidity;BME280_pressure;Samples;Min_cycle;Max_cycle;Signal;HPM_P1;HPM_P2
2022/08/23 00:00:30;;;;;;;;;0.00;0.00;;;;;24.23;48.29;100821.38;5068034;27;45229;-55
2022/08/23 00:02:55;;;;;;;;;0.25;0.25;;;;;24.21;48.40;100818.00;5082939;27;45321;-56
2022/08/23 00:05:21;;;;;;;;;1.00;1.00;;;;;24.23;48.14;100824.06;5075924;27;58371;-56
2022/08/23 00:07:46;;;;;;;;;3.25;1.25;;;;;24.22;48.67;100822.38;5090296;27;45481;-54
2022/08/23 00:10:14;;;;;;;;;0.75;0.00;;;;;24.20;48.31;100823.47;5063177;28;70417;-56
2022/08/23 00:12:39;;;;;;;;;0.50;0.50;;;;;24.19;48.10;100824.47;5056516;28;47741;-57
2022/08/23 00:15:08;;;;;;;;;0.50;0.00;;;;;24.19;48.42;100819.97;5069172;27;45222;-56
2022/08/23 00:17:33;;;;;;;;;1.00;1.00;;;;;24.18;48.43;100820.91;5075159;27;45526;-56
2022/08/23 00:19:58;;;;;;;;;1.00;1.00;;;;;24.15;48.44;100820.31;5054008;28;45434;-55
2022/08/23 00:22:24;;;;;;;;;0.00;0.00;;;;;24.12;48.65;100823.28;5046748;28;47007;-57
2022/08/23 00:24:49;;;;;;;;;0.50;0.00;;;;;24.09;48.60;100821.69;5063551;28;45414;-56
2022/08/23 00:27:16;;;;;;;;;0.50;0.50;;;;;24.10;48.69;100818.06;5046821;28;45417;-56
2022/08/23 00:29:49;;;;;;;;;2.25;1.75;;;;;24.10;48.32;100815.38;5073670;27;63620;-57
2022/08/23 00:32:19;;;;;;;;;1.25;1.00;;;;;24.12;48.62;100815.25;5063098;28;45469;-56
2022/08/23 00:34:44;;;;;;;;;0.00;0.00;;;;;24.13;48.60;100811.59;5080768;27;45194;-56
2022/08/23 00:37:11;;;;;;;;;2.00;2.00;;;;;24.12;48.49;100817.94;5077587;28;51531;-56
2022/08/23 00:39:37;;;;;;;;;1.25;1.25;;;;;24.14;48.60;100806.13;5073290;27;45637;-56
2022/08/23 00:47:41;;;;;;;;;2.50;1.00;;;;;24.15;48.38;100809.63;5073616;27;45478;-55
2022/08/23 00:50:24;;;;;;;;;1.75;0.50;;;;;24.17;48.89;100810.34;5075047;27;45318;-56
2022/08/23 00:52:59;;;;;;;;;0.50;0.50;;;;;24.16;48.55;100800.66;5062880;27;45718;-54
2022/08/23 00:55:25;;;;;;;;;2.00;1.75;;;;;24.15;48.74;100801.59;5046401;28;45281;-54
2022/08/23 00:57:51;;;;;;;;;4.75;2.50;;;;;24.17;48.72;100813.03;5059316;28;49301;-54
2022/08/23 01:00:16;;;;;;;;;0.25;0.00;;;;;24.17;48.61;100807.69;5029835;28;45579;-56
2022/08/23 01:02:45;;;;;;;;;0.00;0.00;;;;;24.16;48.68;100809.50;5053266;28;45360;-55
2022/08/23 01:05:12;;;;;;;;;5.50;2.00;;;;;24.16;48.77;100812.19;5073028;27;45642;-52
2022/08/23 01:07:45;;;;;;;;;3.00;2.00;;;;;24.16;48.61;100811.34;5058510;28;45285;-56
2022/08/23 01:10:34;;;;;;;;;1.75;1.50;;;;;24.15;48.61;100817.66;5043289;28;45242;-55
2022/08/23 01:13:10;;;;;;;;;2.25;2.25;;;;;24.15;48.98;100815.84;5058242;28;46320;-55
2022/08/23 01:15:40;;;;;;;;;2.00;0.25;;;;;24.15;48.93;100818.53;5058302;28;45736;-56
2022/08/23 01:18:08;;;;;;;;;4.00;1.00;;;;;24.15;48.62;100809.63;5050203;28;45380;-55
2022/08/23 01:20:41;;;;;;;;;1.00;1.00;;;;;24.15;49.22;100815.84;5042126;28;45234;-56
2022/08/23 01:23:23;;;;;;;;;3.75;0.50;;;;;24.14;48.83;100815.97;5054933;28;45710;-56
2022/08/23 01:25:49;;;;;;;;;0.25;0.25;;;;;24.13;49.16;100819.63;5047884;28;45371;-56
2022/08/23 01:28:14;;;;;;;;;1.00;1.00;;;;;24.11;48.96;100817.06;5081005;27;45426;-55
2022/08/23 01:30:42;;;;;;;;;1.00;1.00;;;;;24.11;48.94;100818.91;5056748;28;65062;-56
2022/08/23 01:33:09;;;;;;;;;0.00;0.00;;;;;24.10;48.96;100820.72;5061507;28;45437;-56
2022/08/23 01:35:45;;;;;;;;;3.00;0.00;;;;;24.08;48.95;100819.97;5069797;28;45368;-56
2022/08/23 01:38:11;;;;;;;;;5.50;2.25;;;;;24.08;49.16;100822.66;5068097;27;45384;-55
2022/08/23 01:40:37;;;;;;;;;0.00;0.00;;;;;24.08;49.19;100822.66;5072680;27;45446;-55
2022/08/23 01:43:04;;;;;;;;;0.75;0.00;;;;;24.07;49.17;100826.31;5079632;27;45499;-56
2022/08/23 01:45:30;;;;;;;;;1.25;1.25;;;;;24.04;49.14;100821.22;5080228;27;45344;-56
2022/08/23 01:47:56;;;;;;;;;0.00;0.00;;;;;24.02;49.21;100823.19;5076669;27;45280;-56
2022/08/23 01:50:22;;;;;;;;;1.00;1.00;;;;;24.00;49.19;100819.78;5080447;27;45405;-54
2022/08/23 01:52:48;;;;;;;;;1.00;1.00;;;;;23.96;49.27;100813.00;5072509;27;46346;-55
2022/08/23 01:55:14;;;;;;;;;0.00;0.00;;;;;23.98;49.50;100819.91;5072620;28;45242;-56
2022/08/23 01:57:40;;;;;;;;;0.00;0.00;;;;;23.96;49.34;100818.34;5080395;27;45379;-56
2022/08/23 02:00:07;;;;;;;;;1.00;1.00;;;;;23.96;49.28;100821.03;5074205;28;45561;-55
2022/08/23 02:02:32;;;;;;;;;0.00;0.00;;;;;23.95;49.58;100821.97;5073338;27;46478;-54
2022/08/23 02:04:57;;;;;;;;;1.00;1.00;;;;;23.93;49.28;100816.75;5070574;27;69210;-55
2022/08/23 02:07:28;;;;;;;;;3.00;1.00;;;;;23.91;49.53;100818.72;5068279;27;45422;-55
2022/08/23 02:09:54;;;;;;;;;0.00;0.00;;;;;23.88;49.54;100821.63;5069580;27;45545;-54
2022/08/23 02:12:20;;;;;;;;;3.25;1.00;;;;;23.85;49.73;100825.41;5068055;28;46115;-55
2022/08/23 02:14:46;;;;;;;;;2.00;0.00;;;;;23.82;49.83;100824.81;5078687;28;45365;-55
2022/08/23 02:17:11;;;;;;;;;0.00;0.00;;;;;23.81;49.83;100833.78;5062331;28;61278;-55
2022/08/23 02:19:37;;;;;;;;;0.00;0.00;;;;;23.78;50.17;100824.19;5076083;28;63211;-56
2022/08/23 02:22:05;;;;;;;;;21.75;17.00;;;;;23.77;49.61;100825.16;5069154;27;46458;-55
2022/08/23 02:24:30;;;;;;;;;1.00;1.00;;;;;23.76;50.18;100828.81;5058571;27;45345;-55
2022/08/23 02:26:58;;;;;;;;;0.75;0.75;;;;;23.74;49.99;100827.22;5076186;28;45473;-55
2022/08/23 02:29:28;;;;;;;;;0.00;0.00;;;;;23.74;50.06;100828.06;5065806;28;45376;-56
2022/08/23 02:31:54;;;;;;;;;2.00;1.00;;;;;23.72;49.86;100834.53;5073141;28;46721;-54
2022/08/23 02:34:19;;;;;;;;;1.75;0.25;;;;;23.69;50.07;100830.25;5051955;28;45366;-56
2022/08/23 02:36:45;;;;;;;;;1.00;1.00;;;;;23.70;50.10;100835.47;5066203;28;45225;-56
2022/08/23 02:39:11;;;;;;;;;0.00;0.00;;;;;23.72;50.30;100831.84;5037301;28;45352;-55
2022/08/23 02:41:37;;;;;;;;;1.00;0.75;;;;;23.70;50.13;100827.47;5072892;27;45304;-55
2022/08/23 02:44:03;;;;;;;;;2.50;1.00;;;;;23.69;50.28;100819.56;5071138;28;45443;-56
2022/08/23 02:46:28;;;;;;;;;0.75;0.50;;;;;23.70;50.59;100835.47;5075966;28;45427;-56
2022/08/23 02:48:55;;;;;;;;;1.00;1.00;;;;;23.72;50.56;100832.69;5076537;28;45360;-55
2022/08/23 02:51:20;;;;;;;;;0.00;0.00;;;;;23.73;50.29;100836.19;5071644;27;46071;-55
2022/08/23 02:53:46;;;;;;;;;2.00;0.00;;;;;23.72;50.46;100826.50;5066187;28;53742;-56
2022/08/23 02:56:11;;;;;;;;;0.00;0.00;;;;;23.73;50.33;100833.53;5070881;28;60399;-55
2022/08/23 02:58:38;;;;;;;;;0.00;0.00;;;;;23.73;50.21;100831.72;5071026;28;45274;-55
2022/08/23 03:01:04;;;;;;;;;0.25;0.00;;;;;23.73;50.73;100826.38;5073581;28;46173;-55
2022/08/23 03:03:29;;;;;;;;;0.50;0.50;;;;;23.72;50.65;100826.50;5072805;28;45463;-56
2022/08/23 03:05:54;;;;;;;;;0.00;0.00;;;;;23.73;50.57;100833.53;5073901;27;66676;-56
2022/08/23 03:08:20;;;;;;;;;1.00;1.00;;;;;23.73;50.66;100834.41;5053403;28;61417;-56
2022/08/23 03:10:47;;;;;;;;;1.00;0.75;;;;;23.73;50.51;100833.53;5073593;27;46699;-56
2022/08/23 03:13:13;;;;;;;;;1.00;1.00;;;;;23.75;50.54;100840.47;5065962;28;45467;-56
2022/08/23 03:15:39;;;;;;;;;0.50;0.00;;;;;23.74;50.52;100837.91;5076797;27;45357;-55
2022/08/23 03:18:05;;;;;;;;;0.50;0.00;;;;;23.74;50.59;100835.25;5071385;27;45516;-56
2022/08/23 03:20:30;;;;;;;;;0.00;0.00;;;;;23.72;50.56;100843.38;5068330;28;46327;-56
2022/08/23 03:22:56;;;;;;;;;0.50;0.50;;;;;23.72;50.72;100837.19;5071177;28;45601;-56
2022/08/23 03:25:22;;;;;;;;;1.50;1.00;;;;;23.69;50.79;100843.63;5070693;28;60932;-56
2022/08/23 03:27:47;;;;;;;;;0.00;0.00;;;;;23.67;50.69;100849.09;5077029;28;45358;-55
2022/08/23 03:30:13;;;;;;;;;0.00;0.00;;;;;23.67;50.62;100845.56;5066966;28;45726;-59
2022/08/23 03:32:38;;;;;;;;;0.50;0.50;;;;;23.65;50.76;100845.69;5076780;27;68082;-56
2022/08/23 03:35:05;;;;;;;;;0.00;0.00;;;;;23.66;51.16;100844.72;5060985;28;63199;-56
2022/08/23 03:37:30;;;;;;;;;0.00;0.00;;;;;23.65;51.02;100840.34;5072742;27;45286;-56
2022/08/23 03:39:55;;;;;;;;;0.00;0.00;;;;;23.64;50.91;100838.66;5071004;27;50176;-56
2022/08/23 03:42:21;;;;;;;;;0.75;0.75;;;;;23.63;50.54;100831.59;5076474;27;45227;-56
2022/08/23 03:44:46;;;;;;;;;0.25;0.25;;;;;23.64;50.73;100840.50;5067673;28;45380;-56
2022/08/23 03:47:11;;;;;;;;;1.50;0.00;;;;;23.64;51.07;100837.81;5059861;28;67061;-56
2022/08/23 03:49:37;;;;;;;;;0.00;0.00;;;;;23.64;50.75;100838.66;5067504;28;72412;-56
2022/08/23 03:52:03;;;;;;;;;0.50;0.00;;;;;23.63;51.00;100844.97;5060876;27;45378;-56
2022/08/23 03:54:28;;;;;;;;;3.00;1.00;;;;;23.63;51.04;100846.78;5073724;28;45240;-56
2022/08/23 03:57:03;;;;;;;;;1.50;0.00;;;;;23.61;51.04;100852.25;5070320;28;65166;-56
2022/08/23 03:59:30;;;;;;;;;1.25;1.25;;;;;23.62;51.00;100861.13;5047391;28;47201;-56
2022/08/23 04:01:55;;;;;;;;;1.00;1.00;;;;;23.60;51.21;100858.59;5070918;27;45356;-56
2022/08/23 04:04:21;;;;;;;;;1.00;0.50;;;;;23.61;51.19;100867.44;5076354;28;66609;-55
2022/08/23 04:06:46;;;;;;;;;1.25;0.00;;;;;23.60;51.20;100869.28;5070835;28;45328;-56
2022/08/23 04:09:14;;;;;;;;;3.25;0.00;;;;;23.60;51.04;100876.41;5077280;27;61161;-56
2022/08/23 04:11:39;;;;;;;;;1.00;1.00;;;;;23.60;51.39;100884.44;5051259;28;45633;-55
2022/08/23 04:14:05;;;;;;;;;0.25;0.25;;;;;23.59;51.34;100877.41;5073191;27;45469;-56
2022/08/23 04:16:36;;;;;;;;;2.00;1.50;;;;;23.57;51.41;100879.34;5074099;27;62597;-56
2022/08/23 04:19:07;;;;;;;;;0.25;0.25;;;;;23.53;51.45;100881.41;5078357;27;47104;-56
2022/08/23 04:21:32;;;;;;;;;1.50;1.00;;;;;23.53;51.88;100888.56;5053434;28;45716;-56
2022/08/23 04:23:58;;;;;;;;;0.75;0.75;;;;;23.49;51.56;100886.13;5073860;27;45248;-56
2022/08/23 04:26:24;;;;;;;;;2.00;1.00;;;;;23.51;51.41;100891.34;5078052;27;45444;-54
2022/08/23 04:28:50;;;;;;;;;2.00;1.00;;;;;23.52;51.46;100892.22;5076717;27;66866;-55
2022/08/23 04:31:17;;;;;;;;;0.25;0.25;;;;;23.52;51.62;100889.56;5070461;27;57635;-55
2022/08/23 04:33:42;;;;;;;;;1.00;1.00;;;;;23.52;51.73;100886.88;5077139;27;45331;-55
2022/08/23 04:36:08;;;;;;;;;1.00;1.00;;;;;23.53;51.95;100889.41;5068811;28;67062;-54
2022/08/23 04:38:33;;;;;;;;;1.00;1.00;;;;;23.51;51.75;100886.03;5066428;28;46314;-55
2022/08/23 04:43:43;;;;;;;;;1.00;1.00;;;;;23.50;51.48;100900.38;5075566;27;45458;-55
2022/08/23 04:46:09;;;;;;;;;0.50;0.50;;;;;23.48;51.95;100894.28;5070834;28;57961;-56
2022/08/23 04:48:34;;;;;;;;;1.00;1.00;;;;;23.49;51.75;100899.50;5072788;27;48524;-56
2022/08/23 04:51:00;;;;;;;;;1.00;1.00;;;;;23.47;51.70;100896.09;5071149;28;45395;-56
2022/08/23 04:53:28;;;;;;;;;1.00;1.00;;;;;23.45;52.19;100908.72;5056752;28;45420;-56
2022/08/23 04:55:54;;;;;;;;;2.00;0.00;;;;;23.42;51.98;100906.28;5077404;27;45348;-56
2022/08/23 04:58:20;;;;;;;;;3.75;1.00;;;;;23.40;52.12;100908.25;5062128;28;46195;-56
2022/08/23 05:00:48;;;;;;;;;2.00;1.25;;;;;23.40;52.00;100910.91;5064254;27;70774;-56
2022/08/23 05:03:14;;;;;;;;;2.25;1.75;;;;;23.34;52.24;100903.38;5070745;27;45435;-56
2022/08/23 05:05:40;;;;;;;;;1.25;0.25;;;;;23.36;52.05;100909.47;5079187;27;58485;-56
2022/08/23 05:08:06;;;;;;;;;1.75;1.75;;;;;23.35;52.39;100909.56;5071225;27;46200;-54
2022/08/23 05:10:31;;;;;;;;;2.75;2.00;;;;;23.35;52.47;100914.91;5080942;27;45256;-55
2022/08/23 05:12:56;;;;;;;;;1.00;1.00;;;;;23.34;52.14;100911.41;5074753;27;45314;-56
2022/08/23 05:15:22;;;;;;;;;2.50;1.00;;;;;23.35;52.36;100917.59;5070714;27;69532;-56
2022/08/23 05:17:47;;;;;;;;;2.25;2.25;;;;;23.34;52.36;100919.41;5071329;27;48201;-56
2022/08/23 05:20:13;;;;;;;;;1.00;1.00;;;;;23.36;51.79;100911.28;5061754;28;45271;-54
2022/08/23 05:22:40;;;;;;;;;2.75;1.50;;;;;23.39;52.26;100911.03;5071281;27;61511;-55
2022/08/23 05:25:06;;;;;;;;;2.00;2.00;;;;;23.39;51.85;100914.56;5035306;27;45569;-56
2022/08/23 05:27:32;;;;;;;;;2.00;2.00;;;;;23.39;52.25;100916.38;5073655;28;46536;-56
2022/08/23 05:29:57;;;;;;;;;0.25;0.25;;;;;23.39;52.45;100914.56;5067715;27;45451;-55
2022/08/23 05:32:23;;;;;;;;;1.75;1.25;;;;;23.36;52.27;100912.13;5076624;27;61195;-55
2022/08/23 05:34:48;;;;;;;;;2.75;2.50;;;;;23.38;52.12;100918.19;5069885;28;45411;-55
2022/08/23 05:37:15;;;;;;;;;5.00;2.50;;;;;23.40;52.04;100924.25;5069389;28;61121;-56
2022/08/23 05:39:41;;;;;;;;;2.00;2.00;;;;;23.40;52.48;100929.59;5065915;27;45903;-54
2022/08/23 05:42:09;;;;;;;;;1.25;1.25;;;;;23.41;52.21;100920.63;5078363;27;45343;-56
2022/08/23 05:44:34;;;;;;;;;2.00;2.00;;;;;23.43;52.04;100924.03;5080386;27;45251;-56
2022/08/23 05:46:59;;;;;;;;;3.50;2.25;;;;;23.46;52.46;100928.25;5059047;28;46996;-54
2022/08/23 05:49:25;;;;;;;;;3.75;2.00;;;;;23.48;52.63;100924.53;5058493;28;59374;-52
2022/08/23 05:51:50;;;;;;;;;9.25;7.75;;;;;23.48;52.29;100926.34;5075617;27;45239;-55
2022/08/23 05:54:15;;;;;;;;;7.00;3.75;;;;;23.49;52.07;100925.38;5076117;27;66929;-54
2022/08/23 05:56:43;;;;;;;;;5.50;2.75;;;;;23.50;52.48;100921.72;5079158;28;69788;-55
2022/08/23 05:59:11;;;;;;;;;4.00;3.00;;;;;23.49;52.34;100922.69;5055222;28;45479;-52
2022/08/23 06:01:38;;;;;;;;;5.00;2.00;;;;;23.50;52.69;100924.41;5077861;27;45444;-55
2022/08/23 06:04:06;;;;;;;;;14.50;13.00;;;;;23.52;52.27;100929.63;5073625;27;45293;-55
2022/08/23 06:06:32;;;;;;;;;31.25;27.00;;;;;23.50;52.13;100935.94;5075786;28;46313;-56
2022/08/23 06:08:58;;;;;;;;;10.25;7.00;;;;;23.48;52.49;100924.53;5078901;27;45759;-56
2022/08/23 06:11:26;;;;;;;;;6.00;5.25;;;;;23.44;52.17;100938.22;5084183;27;45339;-56
2022/08/23 06:13:57;;;;;;;;;2.75;2.75;;;;;23.39;52.36;100930.59;5080802;27;45276;-56
2022/08/23 06:16:30;;;;;;;;;2.75;2.00;;;;;23.35;52.73;100945.13;5072968;27;46139;-55
2022/08/23 06:18:56;;;;;;;;;4.75;4.00;;;;;23.30;52.84;100932.16;5075597;27;45750;-56
2022/08/23 06:21:23;;;;;;;;;3.75;3.75;;;;;23.34;52.37;100942.56;5087149;27;45383;-56
2022/08/23 06:23:49;;;;;;;;;5.00;5.00;;;;;23.33;52.61;100941.72;5070175;28;45503;-56
2022/08/23 06:26:18;;;;;;;;;6.00;4.00;;;;;23.30;52.53;100937.50;5069805;28;46340;-55
2022/08/23 06:28:45;;;;;;;;;4.00;4.00;;;;;23.30;52.71;100944.63;5069425;28;45361;-55
2022/08/23 06:31:10;;;;;;;;;3.75;3.25;;;;;23.29;52.93;100946.47;5068992;28;45248;-56
2022/08/23 06:33:36;;;;;;;;;4.50;3.25;;;;;23.31;53.01;100951.69;5064776;28;45533;-56
2022/08/23 06:36:11;;;;;;;;;4.25;3.50;;;;;23.33;52.54;100949.75;5068664;28;46341;-56
2022/08/23 06:38:37;;;;;;;;;6.00;4.25;;;;;23.36;53.16;100948.69;5066155;27;45339;-56
2022/08/23 06:41:05;;;;;;;;;4.25;3.50;;;;;23.40;53.11;100953.63;5065608;27;45268;-56
2022/08/23 06:43:31;;;;;;;;;4.50;4.50;;;;;23.43;53.22;100957.91;5079680;27;45416;-56
2022/08/23 06:46:19;;;;;;;;;6.00;4.50;;;;;23.46;53.58;100955.84;5067821;27;46130;-56
2022/08/23 06:48:45;;;;;;;;;6.25;4.75;;;;;23.48;53.28;100951.22;5066642;28;45241;-56
2022/08/23 06:51:22;;;;;;;;;5.25;4.00;;;;;23.52;52.84;100954.50;5073292;28;45372;-56
2022/08/23 06:53:47;;;;;;;;;4.75;3.50;;;;;23.55;52.81;100959.63;5057527;27;45468;-56
2022/08/23 06:56:13;;;;;;;;;15.25;6.75;;;;;23.58;53.01;100959.34;5079272;27;45458;-56
2022/08/23 06:58:38;;;;;;;;;5.00;4.00;;;;;23.62;52.96;100957.31;5056143;28;45296;-56
2022/08/23 07:01:35;;;;;;;;;6.00;4.50;;;;;23.65;52.94;100957.91;5067521;28;45340;-56
2022/08/23 07:04:02;;;;;;;;;6.00;3.00;;;;;23.68;52.74;100957.69;5055093;28;45467;-56
2022/08/23 07:06:28;;;;;;;;;4.25;4.25;;;;;23.72;52.87;100963.63;5055046;27;47245;-56
2022/08/23 07:08:54;;;;;;;;;5.25;4.00;;;;;23.74;53.01;100963.50;5064846;28;45250;-53
2022/08/23 07:11:20;;;;;;;;;4.50;3.75;;;;;23.77;52.96;100969.47;5042476;28;45233;-54
2022/08/23 07:13:46;;;;;;;;;10.75;5.00;;;;;23.81;52.89;100980.78;5056996;28;45335;-57
2022/08/23 07:16:13;;;;;;;;;5.00;5.00;;;;;23.82;52.95;100975.31;5071161;27;46262;-57
2022/08/23 07:18:38;;;;;;;;;4.25;3.00;;;;;23.85;53.02;100969.75;5076057;27;45933;-56
2022/08/23 07:21:04;;;;;;;;;4.25;4.25;;;;;23.87;52.54;100983.84;5071993;28;45363;-57
2022/08/23 07:23:32;;;;;;;;;2.50;2.50;;;;;23.92;52.77;100977.25;5069335;27;45499;-56
2022/08/23 07:26:01;;;;;;;;;5.50;4.50;;;;;23.92;52.87;100978.13;5067476;28;46264;-57
2022/08/23 07:28:27;;;;;;;;;5.50;3.75;;;;;23.95;52.73;100980.53;5033093;27;45664;-56
2022/08/23 07:30:54;;;;;;;;;4.25;3.75;;;;;24.00;52.97;100991.72;5050046;28;45482;-57
2022/08/23 07:33:20;;;;;;;;;3.25;3.25;;;;;24.05;52.84;100981.50;5075293;28;45581;-57
2022/08/23 07:35:49;;;;;;;;;4.50;3.00;;;;;24.14;52.67;100995.13;5069903;28;46359;-57
2022/08/23 07:38:16;;;;;;;;;3.00;2.50;;;;;24.18;53.35;100989.38;5046455;28;45362;-57
2022/08/23 07:40:41;;;;;;;;;8.50;3.25;;;;;24.24;52.95;100996.94;5074102;27;45497;-57
2022/08/23 07:43:06;;;;;;;;;3.50;3.00;;;;;24.30;52.90;100995.59;5075884;27;45368;-57
2022/08/23 07:45:34;;;;;;;;;2.75;2.00;;;;;24.37;52.86;100986.09;5057111;27;46015;-55
2022/08/23 07:48:01;;;;;;;;;2.75;2.75;;;;;24.44;52.79;101000.66;5054602;28;45738;-57
2022/08/23 07:50:26;;;;;;;;;2.00;1.75;;;;;24.49;52.67;100992.28;5073315;27;45332;-56
2022/08/23 07:52:52;;;;;;;;;1.75;1.00;;;;;24.54;52.74;100995.44;5079225;27;45290;-57
2022/08/23 07:55:17;;;;;;;;;75.25;42.00;;;;;24.60;52.56;101000.28;5073523;27;46889;-54
2022/08/23 07:57:43;;;;;;;;;7.50;4.00;;;;;24.64;52.56;100996.38;5074504;27;45312;-55
2022/08/23 08:00:08;;;;;;;;;5.25;4.25;;;;;24.67;52.63;101005.16;5072730;27;62155;-56
2022/08/23 08:02:34;;;;;;;;;9.25;5.75;;;;;24.67;52.62;100997.97;5077001;27;45239;-57
2022/08/23 08:04:59;;;;;;;;;3.00;3.00;;;;;24.67;52.65;101002.47;5078595;27;70800;-56
2022/08/23 08:07:26;;;;;;;;;5.75;2.00;;;;;24.68;52.24;101001.47;5056727;28;45252;-57
2022/08/23 08:09:52;;;;;;;;;3.50;2.75;;;;;24.71;52.52;101007.44;5078296;27;45361;-57
2022/08/23 08:12:17;;;;;;;;;3.75;3.00;;;;;24.74;52.32;100998.31;5086760;27;45341;-57
2022/08/23 08:14:43;;;;;;;;;6.75;3.75;;;;;24.76;52.32;100996.34;5031655;28;45469;-55
2022/08/23 08:17:09;;;;;;;;;4.00;3.00;;;;;24.82;52.44;101001.19;5060182;28;45770;-58
2022/08/23 08:19:35;;;;;;;;;3.75;3.00;;;;;24.85;52.55;100998.25;5063161;28;45505;-55
2022/08/23 08:22:01;;;;;;;;;3.00;3.00;;;;;24.88;52.21;100999.81;5061663;27;45316;-57
2022/08/23 08:24:26;;;;;;;;;5.25;5.00;;;;;24.90;52.13;101001.41;5055797;28;46038;-54
2022/08/23 08:26:52;;;;;;;;;6.75;5.00;;;;;24.94;52.18;101000.16;5064971;28;45267;-56
2022/08/23 08:29:17;;;;;;;;;5.25;4.25;;;;;24.97;52.29;101005.25;5043807;28;45252;-56
2022/08/23 08:31:44;;;;;;;;;2.75;2.75;;;;;25.07;51.88;101001.81;5078077;27;45270;-57
2022/08/23 08:34:09;;;;;;;;;9.75;6.75;;;;;25.18;52.05;101005.28;5070784;27;47093;-56
2022/08/23 08:36:37;;;;;;;;;8.00;5.25;;;;;25.26;51.76;101012.69;5081083;27;46478;-56
2022/08/23 08:39:06;;;;;;;;;7.75;7.00;;;;;25.35;51.65;101014.59;5081519;27;45333;-57
2022/08/23 08:42:12;;;;;;;;;8.00;4.00;;;;;25.47;51.51;101012.69;5058810;28;45481;-55
2022/08/23 08:45:00;;;;;;;;;5.50;4.75;;;;;25.59;51.09;101016.16;5084454;27;45382;-57
2022/08/23 08:47:38;;;;;;;;;5.75;5.75;;;;;25.68;51.16;101018.03;5078813;28;45171;-56
2022/08/23 08:50:14;;;;;;;;;6.50;4.50;;;;;25.75;50.58;101011.16;5068069;28;45309;-56
2022/08/23 08:52:44;;;;;;;;;4.25;3.75;;;;;25.82;51.10;101016.84;5058470;28;45385;-56
2022/08/23 08:55:14;;;;;;;;;2.25;2.25;;;;;25.86;50.52;101020.13;5052917;28;46281;-58
2022/08/23 08:57:43;;;;;;;;;7.25;3.25;;;;;25.91;50.80;101021.41;5045274;27;45528;-54
2022/08/23 09:00:13;;;;;;;;;4.25;3.00;;;;;25.97;50.52;101013.84;5043945;28;45232;-54
2022/08/23 09:02:39;;;;;;;;;4.00;2.00;;;;;26.01;50.23;101021.50;5064649;28;45321;-55
2022/08/23 09:05:17;;;;;;;;;2.50;2.50;;;;;26.06;50.45;101026.44;5056029;28;45498;-57
2022/08/23 09:08:09;;;;;;;;;2.50;2.50;;;;;26.12;50.40;101029.44;5066722;28;45160;-55
2022/08/23 09:10:42;;;;;;;;;5.75;3.00;;;;;26.22;49.91;101031.28;5072214;27;45235;-56
2022/08/23 09:13:30;;;;;;;;;4.25;2.00;;;;;26.29;50.12;101029.75;5076569;27;45627;-56
2022/08/23 09:16:00;;;;;;;;;3.75;2.00;;;;;26.34;49.52;101019.47;5053495;28;46215;-54
2022/08/23 09:18:26;;;;;;;;;2.25;2.25;;;;;26.39;49.79;101027.97;5072027;28;45663;-55
2022/08/23 09:20:54;;;;;;;;;3.00;3.00;;;;;26.44;49.70;101030.25;5060319;28;45320;-55
2022/08/23 09:23:24;;;;;;;;;2.25;2.25;;;;;26.48;49.17;101027.13;5067926;28;45327;-54
2022/08/23 09:25:53;;;;;;;;;4.00;3.00;;;;;26.57;49.10;101027.28;5066788;27;47061;-56
2022/08/23 09:28:19;;;;;;;;;2.50;2.00;;;;;26.64;49.41;101028.47;5074350;28;45371;-55
2022/08/23 09:30:53;;;;;;;;;3.00;2.00;;;;;26.69;49.23;101028.91;5066966;28;45335;-56
2022/08/23 09:33:24;;;;;;;;;5.25;2.75;;;;;26.75;48.80;101028.31;5070326;28;45510;-56
2022/08/23 09:36:03;;;;;;;;;3.75;2.75;;;;;26.77;49.01;101026.34;5071163;28;45391;-55
2022/08/23 09:38:28;;;;;;;;;6.25;3.50;;;;;26.81;48.27;101029.63;5078286;28;45569;-55
2022/08/23 09:40:54;;;;;;;;;5.00;4.75;;;;;26.81;48.56;101021.56;5069302;27;45337;-56
2022/08/23 09:43:24;;;;;;;;;5.00;4.50;;;;;26.82;48.70;101028.63;5055844;28;45451;-56
2022/08/23 09:45:50;;;;;;;;;2.50;2.50;;;;;26.78;48.85;101032.59;5047102;28;45413;-55
2022/08/23 09:48:33;;;;;;;;;3.67;3.67;;;;;26.74;48.84;101033.84;5068355;27;45320;-56
2022/08/23 09:51:15;;;;;;;;;6.00;2.25;;;;;26.75;48.73;101024.81;5075139;27;45394;-56
2022/08/23 09:53:44;;;;;;;;;4.75;4.25;;;;;26.85;49.02;101028.34;5057742;28;45438;-55
2022/08/23 09:56:18;;;;;;;;;3.00;2.75;;;;;26.97;48.48;101027.22;5062021;28;45384;-55
2022/08/23 09:58:45;;;;;;;;;3.00;3.00;;;;;27.02;48.19;101022.28;5046280;28;45489;-56
2022/08/23 10:01:17;;;;;;;;;3.50;3.50;;;;;27.04;48.40;101022.97;5055662;28;45315;-55
2022/08/23 10:03:47;;;;;;;;;6.25;3.25;;;;;27.10;48.57;101024.25;5074143;27;45356;-56
2022/08/23 10:06:28;;;;;;;;;4.00;3.00;;;;;27.26;48.17;101016.44;5050107;28;47082;-56
2022/08/23 10:08:57;;;;;;;;;11.00;11.00;;;;;27.49;48.11;101020.69;5051619;28;45272;-54
2022/08/23 10:11:27;;;;;;;;;42.00;31.75;;;;;27.71;47.63;101015.00;5050702;28;45499;-55
2022/08/23 10:13:52;;;;;;;;;19.00;17.00;;;;;28.00;47.35;101014.88;5060115;28;45202;-57
2022/08/23 10:16:30;;;;;;;;;5.50;5.50;;;;;28.23;46.68;101002.91;5069502;27;45375;-57
2022/08/23 10:19:04;;;;;;;;;7.50;7.00;;;;;28.29;46.08;101007.66;5072611;28;45691;-56
2022/08/23 10:21:44;;;;;;;;;7.75;7.00;;;;;28.28;46.14;101008.66;5076126;27;45391;-55
2022/08/23 10:24:38;;;;;;;;;7.00;5.25;;;;;28.26;46.31;101006.13;5078928;27;45442;-56
2022/08/23 10:30:09;;;;;;;;;5.25;5.25;;;;;28.33;45.98;101001.84;5079519;27;45403;-58
2022/08/23 10:32:45;;;;;;;;;5.75;4.00;;;;;28.44;45.20;101002.59;5042257;28;45391;-57
2022/08/23 10:35:31;;;;;;;;;5.00;5.00;;;;;28.43;45.46;100999.06;5064924;28;45205;-54
2022/08/23 10:37:59;;;;;;;;;6.00;6.00;;;;;28.46;45.69;100998.78;5075022;28;46163;-56
2022/08/23 10:40:29;;;;;;;;;5.00;4.00;;;;;28.50;45.63;100989.38;5078332;28;45624;-56
2022/08/23 10:43:19;;;;;;;;;2.75;2.50;;;;;28.65;44.78;100992.44;5051700;28;45277;-57
2022/08/23 10:45:45;;;;;;;;;3.00;3.00;;;;;28.81;44.95;100990.88;5076445;27;45267;-58
2022/08/23 10:48:31;;;;;;;;;3.50;3.00;;;;;29.00;44.86;100982.63;5050129;28;47054;-58
2022/08/23 10:51:03;;;;;;;;;2.50;1.50;;;;;29.15;43.86;100985.66;5056881;27;45453;-58
2022/08/23 10:53:47;;;;;;;;;2.25;2.25;;;;;29.29;44.12;100990.50;5054734;27;45316;-56
2022/08/23 10:56:20;;;;;;;;;2.00;1.50;;;;;29.39;43.93;100987.66;5078106;27;45218;-57
2022/08/23 10:58:51;;;;;;;;;5.50;3.25;;;;;29.39;43.67;100986.84;5061285;28;47704;-58
2022/08/23 11:01:28;;;;;;;;;1.50;1.50;;;;;29.31;43.26;100987.63;5057666;28;45615;-59
2022/08/23 11:04:06;;;;;;;;;3.00;3.00;;;;;29.23;43.58;100990.25;5063273;28;45346;-58
2022/08/23 11:06:34;;;;;;;;;3.00;2.75;;;;;29.16;43.85;100984.66;5056920;28;45421;-57
2022/08/23 11:09:01;;;;;;;;;1.75;1.00;;;;;29.10;43.41;100991.47;5076893;27;46503;-58
2022/08/23 11:12:01;;;;;;;;;3.00;2.00;;;;;29.06;44.11;100981.19;5061100;28;45593;-58
2022/08/23 11:14:35;;;;;;;;;1.25;1.25;;;;;28.96;43.32;100981.28;5057130;28;45522;-56
2022/08/23 11:17:04;;;;;;;;;0.00;0.00;;;;;28.89;43.33;100982.88;5074959;27;45521;-58
2022/08/23 11:19:51;;;;;;;;;3.00;3.00;;;;;28.76;43.18;100981.44;5087293;27;46236;-58
2022/08/23 11:22:23;;;;;;;;;4.75;4.75;;;;;28.69;43.08;100983.06;5076140;27;45819;-58
2022/08/23 11:25:02;;;;;;;;;2.00;2.00;;;;;28.65;43.33;100980.81;5082716;27;45271;-58
2022/08/23 11:27:35;;;;;;;;;0.25;0.25;;;;;28.58;43.55;100977.91;5082926;27;45543;-59
2022/08/23 11:30:31;;;;;;;;;4.25;2.75;;;;;28.48;43.38;100974.41;5059141;27;47266;-58
2022/08/23 11:33:15;;;;;;;;;4.50;3.75;;;;;28.39;43.39;100981.53;5077474;27;45933;-58
2022/08/23 11:35:50;;;;;;;;;2.25;1.50;;;;;28.37;43.48;100978.16;5069329;27;45375;-58
2022/08/23 11:38:37;;;;;;;;;2.00;2.00;;;;;28.35;43.58;100977.47;5078794;27;46209;-58
2022/08/23 11:41:17;;;;;;;;;3.00;3.00;;;;;28.32;43.41;100972.38;5071668;28;45588;-58
2022/08/23 11:43:44;;;;;;;;;3.50;2.75;;;;;28.30;43.75;100972.53;5064161;27;45754;-58